sensor_id;sensor_type;location;lat;lon;timestamp;pressure;altitude;pressure_sealevel;temperature
9985;BMP180;16737;50.932;6.780;2023-04-07T00:01:53;100022.00;;;12.70
9985;BMP180;16737;50.932;6.780;2023-04-07T00:04:20;100026.00;;;12.80
9985;BMP180;16737;50.932;6.780;2023-04-07T00:06:46;100027.00;;;12.80
9985;BMP180;16737;50.932;6.780;2023-04-07T00:09:13;100031.00;;;12.90
9985;BMP180;16737;50.932;6.780;2023-04-07T00:11:42;100036.00;;;12.90
9985;BMP180;16737;50.932;6.780;2023-04-07T00:14:09;100030.00;;;13.00
9985;BMP180;16737;50.932;6.780;2023-04-07T00:16:35;100038.00;;;13.10
9985;BMP180;16737;50.932;6.780;2023-04-07T00:19:02;100035.00;;;13.10
9985;BMP180;16737;50.932;6.780;2023-04-07T00:21:29;100043.00;;;13.10
9985;BMP180;16737;50.932;6.780;2023-04-07T00:23:56;100043.00;;;13.20
9985;BMP180;16737;50.932;6.780;2023-04-07T00:26:23;100039.00;;;13.20
9985;BMP180;16737;50.932;6.780;2023-04-07T00:28:55;100044.00;;;13.30
9985;BMP180;16737;50.932;6.780;2023-04-07T00:31:21;100043.00;;;13.30
9985;BMP180;16737;50.932;6.780;2023-04-07T00:33:48;100036.00;;;13.40
9985;BMP180;16737;50.932;6.780;2023-04-07T00:36:15;100036.00;;;13.40
9985;BMP180;16737;50.932;6.780;2023-04-07T00:38:42;100036.00;;;13.40
9985;BMP180;16737;50.932;6.780;2023-04-07T00:41:09;100029.00;;;13.40
9985;BMP180;16737;50.932;6.780;2023-04-07T00:43:36;100027.00;;;13.40
9985;BMP180;16737;50.932;6.780;2023-04-07T00:46:05;100033.00;;;13.50
9985;BMP180;16737;50.932;6.780;2023-04-07T00:48:32;100035.00;;;13.50
9985;BMP180;16737;50.932;6.780;2023-04-07T00:50:59;100034.00;;;13.50
9985;BMP180;16737;50.932;6.780;2023-04-07T00:53:26;100028.00;;;13.50
9985;BMP180;16737;50.932;6.780;2023-04-07T00:55:52;100029.00;;;13.50
9985;BMP180;16737;50.932;6.780;2023-04-07T00:58:19;100035.00;;;13.50
9985;BMP180;16737;50.932;6.780;2023-04-07T01:03:28;100024.00;;;13.40
9985;BMP180;16737;50.932;6.780;2023-04-07T01:06:01;100022.00;;;13.40
9985;BMP180;16737;50.932;6.780;2023-04-07T01:08:37;99960.00;;;13.40
9985;BMP180;16737;50.932;6.780;2023-04-07T01:11:13;100014.00;;;13.40
9985;BMP180;16737;50.932;6.780;2023-04-07T01:13:48;99968.00;;;13.40
9985;BMP180;16737;50.932;6.780;2023-04-07T01:16:23;100016.00;;;13.40
9985;BMP180;16737;50.932;6.780;2023-04-07T01:18:57;99998.00;;;13.30
9985;BMP180;16737;50.932;6.780;2023-04-07T01:21:32;100015.00;;;13.30
9985;BMP180;16737;50.932;6.780;2023-04-07T01:24:18;100021.00;;;13.20
9985;BMP180;16737;50.932;6.780;2023-04-07T01:26:50;100014.00;;;13.30
9985;BMP180;16737;50.932;6.780;2023-04-07T01:29:32;99999.00;;;13.20
9985;BMP180;16737;50.932;6.780;2023-04-07T01:32:03;100017.00;;;13.20
9985;BMP180;16737;50.932;6.780;2023-04-07T01:34:34;100017.00;;;13.20
9985;BMP180;16737;50.932;6.780;2023-04-07T01:37:03;100007.00;;;13.20
9985;BMP180;16737;50.932;6.780;2023-04-07T01:39:32;100019.00;;;13.20
9985;BMP180;16737;50.932;6.780;2023-04-07T01:42:00;100024.00;;;13.20
9985;BMP180;16737;50.932;6.780;2023-04-07T01:44:31;100026.00;;;13.20
9985;BMP180;16737;50.932;6.780;2023-04-07T01:47:00;100001.00;;;13.20
9985;BMP180;16737;50.932;6.780;2023-04-07T01:49:29;100024.00;;;13.20
9985;BMP180;16737;50.932;6.780;2023-04-07T01:51:57;100022.00;;;13.20
9985;BMP180;16737;50.932;6.780;2023-04-07T01:54:25;99919.00;;;13.20
9985;BMP180;16737;50.932;6.780;2023-04-07T01:56:52;100013.00;;;13.20
9985;BMP180;16737;50.932;6.780;2023-04-07T01:59:21;100023.00;;;13.30
9985;BMP180;16737;50.932;6.780;2023-04-07T02:01:49;100012.00;;;13.30
9985;BMP180;16737;50.932;6.780;2023-04-07T02:04:25;100023.00;;;13.30
9985;BMP180;16737;50.932;6.780;2023-04-07T02:06:58;100021.00;;;13.30
9985;BMP180;16737;50.932;6.780;2023-04-07T02:09:30;100018.00;;;13.30
9985;BMP180;16737;50.932;6.780;2023-04-07T02:12:00;100015.00;;;13.30
9985;BMP180;16737;50.932;6.780;2023-04-07T02:14:28;100027.00;;;13.30
9985;BMP180;16737;50.932;6.780;2023-04-07T02:16:58;100019.00;;;13.30
9985;BMP180;16737;50.932;6.780;2023-04-07T02:19:27;100018.00;;;13.20
9985;BMP180;16737;50.932;6.780;2023-04-07T02:21:56;100027.00;;;13.20
9985;BMP180;16737;50.932;6.780;2023-04-07T02:24:23;100023.00;;;13.30
9985;BMP180;16737;50.932;6.780;2023-04-07T02:26:50;100018.00;;;13.30
9985;BMP180;16737;50.932;6.780;2023-04-07T02:29:17;100030.00;;;13.30
9985;BMP180;16737;50.932;6.780;2023-04-07T02:31:44;100029.00;;;13.20
9985;BMP180;16737;50.932;6.780;2023-04-07T02:34:12;100022.00;;;13.20
9985;BMP180;16737;50.932;6.780;2023-04-07T02:36:39;100021.00;;;13.30
9985;BMP180;16737;50.932;6.780;2023-04-07T02:39:07;100029.00;;;13.30
9985;BMP180;16737;50.932;6.780;2023-04-07T02:41:35;100020.00;;;13.30
9985;BMP180;16737;50.932;6.780;2023-04-07T02:44:02;100029.00;;;13.20
9985;BMP180;16737;50.932;6.780;2023-04-07T02:46:29;100026.00;;;13.20
9985;BMP180;16737;50.932;6.780;2023-04-07T02:48:55;100023.00;;;13.20
9985;BMP180;16737;50.932;6.780;2023-04-07T02:51:24;100027.00;;;13.20
9985;BMP180;16737;50.932;6.780;2023-04-07T02:53:51;100030.00;;;13.30
9985;BMP180;16737;50.932;6.780;2023-04-07T02:56:18;100040.00;;;13.30
9985;BMP180;16737;50.932;6.780;2023-04-07T02:58:45;100038.00;;;13.20
9985;BMP180;16737;50.932;6.780;2023-04-07T03:01:12;100037.00;;;13.30
9985;BMP180;16737;50.932;6.780;2023-04-07T03:03:39;100037.00;;;13.10
9985;BMP180;16737;50.932;6.780;2023-04-07T03:06:09;100035.00;;;13.20
9985;BMP180;16737;50.932;6.780;2023-04-07T03:08:37;100032.00;;;13.20
9985;BMP180;16737;50.932;6.780;2023-04-07T03:11:05;100033.00;;;13.20
9985;BMP180;16737;50.932;6.780;2023-04-07T03:13:32;100042.00;;;13.30
9985;BMP180;16737;50.932;6.780;2023-04-07T03:15:58;100044.00;;;13.30
9985;BMP180;16737;50.932;6.780;2023-04-07T03:18:25;100006.00;;;13.20
9985;BMP180;16737;50.932;6.780;2023-04-07T03:20:54;100043.00;;;13.20
9985;BMP180;16737;50.932;6.780;2023-04-07T03:23:21;100032.00;;;13.20
9985;BMP180;16737;50.932;6.780;2023-04-07T03:25:49;100034.00;;;13.20
9985;BMP180;16737;50.932;6.780;2023-04-07T03:28:16;100034.00;;;13.20
9985;BMP180;16737;50.932;6.780;2023-04-07T03:30:43;100032.00;;;13.10
9985;BMP180;16737;50.932;6.780;2023-04-07T03:33:10;100034.00;;;13.10
9985;BMP180;16737;50.932;6.780;2023-04-07T03:35:37;100035.00;;;13.10
9985;BMP180;16737;50.932;6.780;2023-04-07T03:38:05;100038.00;;;13.10
9985;BMP180;16737;50.932;6.780;2023-04-07T03:40:32;100029.00;;;13.10
9985;BMP180;16737;50.932;6.780;2023-04-07T03:43:01;100032.00;;;13.10
9985;BMP180;16737;50.932;6.780;2023-04-07T03:45:28;100027.00;;;13.10
9985;BMP180;16737;50.932;6.780;2023-04-07T03:47:55;100040.00;;;13.10
9985;BMP180;16737;50.932;6.780;2023-04-07T03:50:22;100037.00;;;13.00
9985;BMP180;16737;50.932;6.780;2023-04-07T03:52:49;100034.00;;;13.10
9985;BMP180;16737;50.932;6.780;2023-04-07T03:55:16;100046.00;;;13.00
9985;BMP180;16737;50.932;6.780;2023-04-07T03:57:43;100042.00;;;13.00
9985;BMP180;16737;50.932;6.780;2023-04-07T04:00:13;99976.00;;;13.00
9985;BMP180;16737;50.932;6.780;2023-04-07T04:02:39;100041.00;;;13.00
9985;BMP180;16737;50.932;6.780;2023-04-07T04:05:07;100045.00;;;13.00
9985;BMP180;16737;50.932;6.780;2023-04-07T04:07:33;100046.00;;;13.00
9985;BMP180;16737;50.932;6.780;2023-04-07T04:10:00;100040.00;;;13.00
9985;BMP180;16737;50.932;6.780;2023-04-07T04:12:27;100056.00;;;13.00
9985;BMP180;16737;50.932;6.780;2023-04-07T04:14:56;100017.00;;;12.90
9985;BMP180;16737;50.932;6.780;2023-04-07T04:17:24;100053.00;;;12.90
9985;BMP180;16737;50.932;6.780;2023-04-07T04:19:51;99979.00;;;12.90
9985;BMP180;16737;50.932;6.780;2023-04-07T04:22:19;100041.00;;;12.90
9985;BMP180;16737;50.932;6.780;2023-04-07T04:24:46;100048.00;;;12.90
9985;BMP180;16737;50.932;6.780;2023-04-07T04:27:13;100065.00;;;12.90
9985;BMP180;16737;50.932;6.780;2023-04-07T04:29:40;99973.00;;;12.90
9985;BMP180;16737;50.932;6.780;2023-04-07T04:32:07;100058.00;;;12.90
9985;BMP180;16737;50.932;6.780;2023-04-07T04:34:35;100035.00;;;12.90
9985;BMP180;16737;50.932;6.780;2023-04-07T04:37:02;100062.00;;;12.80
9985;BMP180;16737;50.932;6.780;2023-04-07T04:39:29;100077.00;;;12.80
9985;BMP180;16737;50.932;6.780;2023-04-07T04:41:56;100049.00;;;12.80
9985;BMP180;16737;50.932;6.780;2023-04-07T04:44:23;100074.00;;;12.80
9985;BMP180;16737;50.932;6.780;2023-04-07T04:46:50;100066.00;;;12.80
9985;BMP180;16737;50.932;6.780;2023-04-07T04:49:17;99961.00;;;12.80
9985;BMP180;16737;50.932;6.780;2023-04-07T04:51:46;100067.00;;;12.80
9985;BMP180;16737;50.932;6.780;2023-04-07T04:54:12;100069.00;;;12.80
9985;BMP180;16737;50.932;6.780;2023-04-07T04:56:40;100075.00;;;12.80
9985;BMP180;16737;50.932;6.780;2023-04-07T04:59:07;100062.00;;;12.80
9985;BMP180;16737;50.932;6.780;2023-04-07T05:01:34;100094.00;;;12.80
9985;BMP180;16737;50.932;6.780;2023-04-07T05:04:01;100077.00;;;12.80
9985;BMP180;16737;50.932;6.780;2023-04-07T05:06:28;100087.00;;;12.80
9985;BMP180;16737;50.932;6.780;2023-04-07T05:08:56;100091.00;;;12.80
9985;BMP180;16737;50.932;6.780;2023-04-07T05:11:24;100075.00;;;12.90
9985;BMP180;16737;50.932;6.780;2023-04-07T05:13:51;100095.00;;;12.90
9985;BMP180;16737;50.932;6.780;2023-04-07T05:16:18;100088.00;;;12.90
9985;BMP180;16737;50.932;6.780;2023-04-07T05:18:45;100070.00;;;12.90
9985;BMP180;16737;50.932;6.780;2023-04-07T05:21:12;100094.00;;;12.90
9985;BMP180;16737;50.932;6.780;2023-04-07T05:23:39;100105.00;;;12.90
9985;BMP180;16737;50.932;6.780;2023-04-07T05:26:07;100102.00;;;12.90
9985;BMP180;16737;50.932;6.780;2023-04-07T05:28:34;100094.00;;;13.00
9985;BMP180;16737;50.932;6.780;2023-04-07T05:31:01;100085.00;;;13.00
9985;BMP180;16737;50.932;6.780;2023-04-07T05:33:28;100052.00;;;13.00
9985;BMP180;16737;50.932;6.780;2023-04-07T05:35:55;100048.00;;;13.00
9985;BMP180;16737;50.932;6.780;2023-04-07T05:38:22;100102.00;;;13.00
9985;BMP180;16737;50.932;6.780;2023-04-07T05:40:49;100079.00;;;12.90
9985;BMP180;16737;50.932;6.780;2023-04-07T05:43:17;100108.00;;;12.90
9985;BMP180;16737;50.932;6.780;2023-04-07T05:45:44;100116.00;;;12.90
9985;BMP180;16737;50.932;6.780;2023-04-07T05:48:11;100109.00;;;12.90
9985;BMP180;16737;50.932;6.780;2023-04-07T05:50:38;100117.00;;;12.90
9985;BMP180;16737;50.932;6.780;2023-04-07T05:53:05;100100.00;;;12.80
9985;BMP180;16737;50.932;6.780;2023-04-07T05:55:32;100127.00;;;12.80
9985;BMP180;16737;50.932;6.780;2023-04-07T05:57:59;100130.00;;;12.80
9985;BMP180;16737;50.932;6.780;2023-04-07T06:00:28;100036.00;;;12.80
9985;BMP180;16737;50.932;6.780;2023-04-07T06:02:55;100116.00;;;12.80
9985;BMP180;16737;50.932;6.780;2023-04-07T06:05:22;100115.00;;;12.90
9985;BMP180;16737;50.932;6.780;2023-04-07T06:07:49;100118.00;;;12.60
9985;BMP180;16737;50.932;6.780;2023-04-07T06:10:16;100129.00;;;12.90
9985;BMP180;16737;50.932;6.780;2023-04-07T06:12:43;100123.00;;;12.90
9985;BMP180;16737;50.932;6.780;2023-04-07T06:15:10;100133.00;;;12.90
9985;BMP180;16737;50.932;6.780;2023-04-07T06:17:38;100131.00;;;12.90
9985;BMP180;16737;50.932;6.780;2023-04-07T06:20:07;100142.00;;;12.80
9985;BMP180;16737;50.932;6.780;2023-04-07T06:22:34;100143.00;;;12.80
9985;BMP180;16737;50.932;6.780;2023-04-07T06:25:01;100144.00;;;12.80
9985;BMP180;16737;50.932;6.780;2023-04-07T06:27:28;100147.00;;;12.80
9985;BMP180;16737;50.932;6.780;2023-04-07T06:29:55;100134.00;;;12.80
9985;BMP180;16737;50.932;6.780;2023-04-07T06:32:22;100159.00;;;12.80
9985;BMP180;16737;50.932;6.780;2023-04-07T06:34:51;100157.00;;;12.80
9985;BMP180;16737;50.932;6.780;2023-04-07T06:37:18;100162.00;;;12.80
9985;BMP180;16737;50.932;6.780;2023-04-07T06:39:45;100140.00;;;12.80
9985;BMP180;16737;50.932;6.780;2023-04-07T06:42:12;100161.00;;;12.80
9985;BMP180;16737;50.932;6.780;2023-04-07T06:44:39;100147.00;;;12.80
9985;BMP180;16737;50.932;6.780;2023-04-07T06:47:06;100169.00;;;12.80
9985;BMP180;16737;50.932;6.780;2023-04-07T06:49:33;100171.00;;;12.80
9985;BMP180;16737;50.932;6.780;2023-04-07T06:52:02;100166.00;;;12.80
9985;BMP180;16737;50.932;6.780;2023-04-07T06:54:29;100175.00;;;12.80
9985;BMP180;16737;50.932;6.780;2023-04-07T06:56:56;100166.00;;;12.80
9985;BMP180;16737;50.932;6.780;2023-04-07T06:59:23;100171.00;;;12.80
9985;BMP180;16737;50.932;6.780;2023-04-07T07:01:49;100184.00;;;12.80
9985;BMP180;16737;50.932;6.780;2023-04-07T07:04:16;100188.00;;;12.80
9985;BMP180;16737;50.932;6.780;2023-04-07T07:06:43;100182.00;;;12.90
9985;BMP180;16737;50.932;6.780;2023-04-07T07:09:12;100183.00;;;12.90
9985;BMP180;16737;50.932;6.780;2023-04-07T07:11:39;100187.00;;;12.90
9985;BMP180;16737;50.932;6.780;2023-04-07T07:14:05;100197.00;;;12.90
9985;BMP180;16737;50.932;6.780;2023-04-07T07:16:32;100105.00;;;12.90
9985;BMP180;16737;50.932;6.780;2023-04-07T07:19:00;100182.00;;;12.90
9985;BMP180;16737;50.932;6.780;2023-04-07T07:21:27;100202.00;;;12.90
9985;BMP180;16737;50.932;6.780;2023-04-07T07:23:56;100195.00;;;12.90
9985;BMP180;16737;50.932;6.780;2023-04-07T07:26:24;100207.00;;;12.90
9985;BMP180;16737;50.932;6.780;2023-04-07T07:28:51;100205.00;;;12.90
9985;BMP180;16737;50.932;6.780;2023-04-07T07:31:18;100200.00;;;12.90
9985;BMP180;16737;50.932;6.780;2023-04-07T07:33:46;100199.00;;;12.90
9985;BMP180;16737;50.932;6.780;2023-04-07T07:36:14;100210.00;;;13.00
9985;BMP180;16737;50.932;6.780;2023-04-07T07:38:41;100167.00;;;13.00
9985;BMP180;16737;50.932;6.780;2023-04-07T07:41:08;100211.00;;;13.00
9985;BMP180;16737;50.932;6.780;2023-04-07T07:43:36;100217.00;;;13.00
9985;BMP180;16737;50.932;6.780;2023-04-07T07:46:03;100222.00;;;13.00
9985;BMP180;16737;50.932;6.780;2023-04-07T07:48:30;100214.00;;;13.10
9985;BMP180;16737;50.932;6.780;2023-04-07T07:50:57;100196.00;;;13.10
9985;BMP180;16737;50.932;6.780;2023-04-07T07:53:24;100158.00;;;13.10
9985;BMP180;16737;50.932;6.780;2023-04-07T07:55:51;100231.00;;;13.10
9985;BMP180;16737;50.932;6.780;2023-04-07T07:58:20;100220.00;;;13.10
9985;BMP180;16737;50.932;6.780;2023-04-07T08:00:48;100220.00;;;13.10
9985;BMP180;16737;50.932;6.780;2023-04-07T08:03:16;100229.00;;;13.20
9985;BMP180;16737;50.932;6.780;2023-04-07T08:05:44;100249.00;;;13.20
9985;BMP180;16737;50.932;6.780;2023-04-07T08:08:11;100236.00;;;13.20
9985;BMP180;16737;50.932;6.780;2023-04-07T08:10:38;100243.00;;;13.20
9985;BMP180;16737;50.932;6.780;2023-04-07T08:13:05;100244.00;;;13.20
9985;BMP180;16737;50.932;6.780;2023-04-07T08:15:32;100239.00;;;13.20
9985;BMP180;16737;50.932;6.780;2023-04-07T08:18:00;100245.00;;;13.20
9985;BMP180;16737;50.932;6.780;2023-04-07T08:20:29;100160.00;;;13.30
9985;BMP180;16737;50.932;6.780;2023-04-07T08:22:56;100200.00;;;13.30
9985;BMP180;16737;50.932;6.780;2023-04-07T08:25:23;100258.00;;;13.30
9985;BMP180;16737;50.932;6.780;2023-04-07T08:27:50;100246.00;;;13.30
9985;BMP180;16737;50.932;6.780;2023-04-07T08:30:17;100254.00;;;13.30
9985;BMP180;16737;50.932;6.780;2023-04-07T08:32:45;100258.00;;;13.30
9985;BMP180;16737;50.932;6.780;2023-04-07T08:35:14;100262.00;;;13.30
9985;BMP180;16737;50.932;6.780;2023-04-07T08:37:41;100270.00;;;13.40
9985;BMP180;16737;50.932;6.780;2023-04-07T08:40:10;100259.00;;;13.40
9985;BMP180;16737;50.932;6.780;2023-04-07T08:42:41;100270.00;;;13.40
9985;BMP180;16737;50.932;6.780;2023-04-07T08:45:09;100260.00;;;13.40
9985;BMP180;16737;50.932;6.780;2023-04-07T08:47:36;100266.00;;;13.30
9985;BMP180;16737;50.932;6.780;2023-04-07T08:50:08;100265.00;;;13.30
9985;BMP180;16737;50.932;6.780;2023-04-07T08:52:50;100179.00;;;13.30
9985;BMP180;16737;50.932;6.780;2023-04-07T08:55:19;100263.00;;;13.30
9985;BMP180;16737;50.932;6.780;2023-04-07T08:57:47;100260.00;;;13.30
9985;BMP180;16737;50.932;6.780;2023-04-07T09:00:14;100247.00;;;13.40
9985;BMP180;16737;50.932;6.780;2023-04-07T09:02:43;100276.00;;;13.40
9985;BMP180;16737;50.932;6.780;2023-04-07T09:05:12;100270.00;;;13.30
9985;BMP180;16737;50.932;6.780;2023-04-07T09:07:41;100260.00;;;13.40
9985;BMP180;16737;50.932;6.780;2023-04-07T09:10:09;100281.00;;;13.40
9985;BMP180;16737;50.932;6.780;2023-04-07T09:12:37;100273.00;;;13.50
9985;BMP180;16737;50.932;6.780;2023-04-07T09:15:06;100265.00;;;13.50
9985;BMP180;16737;50.932;6.780;2023-04-07T09:17:33;100282.00;;;13.50
9985;BMP180;16737;50.932;6.780;2023-04-07T09:20:01;100286.00;;;13.60
9985;BMP180;16737;50.932;6.780;2023-04-07T09:22:37;100264.00;;;13.60
9985;BMP180;16737;50.932;6.780;2023-04-07T09:25:17;100288.00;;;13.60
9985;BMP180;16737;50.932;6.780;2023-04-07T09:27:59;100301.00;;;13.70
9985;BMP180;16737;50.932;6.780;2023-04-07T09:30:28;100302.00;;;13.70
9985;BMP180;16737;50.932;6.780;2023-04-07T09:32:57;100295.00;;;13.70
9985;BMP180;16737;50.932;6.780;2023-04-07T09:35:24;100206.00;;;13.70
9985;BMP180;16737;50.932;6.780;2023-04-07T09:38:04;100304.00;;;13.70
9985;BMP180;16737;50.932;6.780;2023-04-07T09:40:33;100291.00;;;13.70
9985;BMP180;16737;50.932;6.780;2023-04-07T09:43:02;100303.00;;;13.70
9985;BMP180;16737;50.932;6.780;2023-04-07T09:45:31;100303.00;;;13.60
9985;BMP180;16737;50.932;6.780;2023-04-07T09:48:04;100308.00;;;13.60
9985;BMP180;16737;50.932;6.780;2023-04-07T09:50:32;100300.00;;;13.60
9985;BMP180;16737;50.932;6.780;2023-04-07T09:53:00;100303.00;;;13.60
9985;BMP180;16737;50.932;6.780;2023-04-07T09:55:31;100296.00;;;13.60
9985;BMP180;16737;50.932;6.780;2023-04-07T09:58:00;100292.00;;;13.60
9985;BMP180;16737;50.932;6.780;2023-04-07T10:00:27;100297.00;;;13.60
9985;BMP180;16737;50.932;6.780;2023-04-07T10:02:55;100298.00;;;13.60
9985;BMP180;16737;50.932;6.780;2023-04-07T10:05:24;100276.00;;;13.60
9985;BMP180;16737;50.932;6.780;2023-04-07T10:07:51;100301.00;;;13.60
9985;BMP180;16737;50.932;6.780;2023-04-07T10:10:19;100238.00;;;13.60
9985;BMP180;16737;50.932;6.780;2023-04-07T10:12:50;100286.00;;;13.60
9985;BMP180;16737;50.932;6.780;2023-04-07T10:15:19;100288.00;;;13.60
9985;BMP180;16737;50.932;6.780;2023-04-07T10:17:48;100295.00;;;13.60
9985;BMP180;16737;50.932;6.780;2023-04-07T10:20:18;100252.00;;;13.60
9985;BMP180;16737;50.932;6.780;2023-04-07T10:22:47;100193.00;;;13.50
9985;BMP180;16737;50.932;6.780;2023-04-07T10:25:20;100293.00;;;13.60
9985;BMP180;16737;50.932;6.780;2023-04-07T10:27:56;100315.00;;;13.60
9985;BMP180;16737;50.932;6.780;2023-04-07T10:30:28;100247.00;;;13.40
9985;BMP180;16737;50.932;6.780;2023-04-07T10:32:58;100305.00;;;13.70
9985;BMP180;16737;50.932;6.780;2023-04-07T10:35:25;100318.00;;;13.70
9985;BMP180;16737;50.932;6.780;2023-04-07T10:38:12;100313.00;;;13.70
9985;BMP180;16737;50.932;6.780;2023-04-07T10:40:42;100316.00;;;13.70
9985;BMP180;16737;50.932;6.780;2023-04-07T10:43:10;100318.00;;;13.70
9985;BMP180;16737;50.932;6.780;2023-04-07T10:45:54;100320.00;;;13.70
9985;BMP180;16737;50.932;6.780;2023-04-07T10:48:26;100331.00;;;13.80
9985;BMP180;16737;50.932;6.780;2023-04-07T10:51:16;100321.00;;;13.70
9985;BMP180;16737;50.932;6.780;2023-04-07T10:54:17;100320.00;;;13.80
9985;BMP180;16737;50.932;6.780;2023-04-07T10:57:08;100326.00;;;13.80
9985;BMP180;16737;50.932;6.780;2023-04-07T10:59:41;100338.00;;;13.80
9985;BMP180;16737;50.932;6.780;2023-04-07T11:02:32;100337.00;;;13.80
9985;BMP180;16737;50.932;6.780;2023-04-07T11:05:00;100338.00;;;13.90
9985;BMP180;16737;50.932;6.780;2023-04-07T11:07:52;100334.00;;;13.80
9985;BMP180;16737;50.932;6.780;2023-04-07T11:10:22;100341.00;;;13.80
9985;BMP180;16737;50.932;6.780;2023-04-07T11:13:04;100340.00;;;13.80
9985;BMP180;16737;50.932;6.780;2023-04-07T11:15:34;100353.00;;;13.80
9985;BMP180;16737;50.932;6.780;2023-04-07T11:18:14;100351.00;;;13.90
9985;BMP180;16737;50.932;6.780;2023-04-07T11:20:44;100345.00;;;13.90
9985;BMP180;16737;50.932;6.780;2023-04-07T11:23:13;100346.00;;;13.90
9985;BMP180;16737;50.932;6.780;2023-04-07T11:25:43;100348.00;;;14.00
9985;BMP180;16737;50.932;6.780;2023-04-07T11:28:11;100350.00;;;13.90
9985;BMP180;16737;50.932;6.780;2023-04-07T11:30:46;100353.00;;;14.00
9985;BMP180;16737;50.932;6.780;2023-04-07T11:33:16;100357.00;;;14.10
9985;BMP180;16737;50.932;6.780;2023-04-07T11:35:50;100360.00;;;14.10
9985;BMP180;16737;50.932;6.780;2023-04-07T11:38:18;100338.00;;;14.10
9985;BMP180;16737;50.932;6.780;2023-04-07T11:40:46;100359.00;;;14.10
9985;BMP180;16737;50.932;6.780;2023-04-07T11:43:18;100356.00;;;14.00
9985;BMP180;16737;50.932;6.780;2023-04-07T11:46:06;100356.00;;;13.90
9985;BMP180;16737;50.932;6.780;2023-04-07T11:48:35;100368.00;;;13.90
9985;BMP180;16737;50.932;6.780;2023-04-07T11:51:04;100356.00;;;13.90
9985;BMP180;16737;50.932;6.780;2023-04-07T11:53:34;100363.00;;;13.90
9985;BMP180;16737;50.932;6.780;2023-04-07T11:56:08;100321.00;;;13.90
9985;BMP180;16737;50.932;6.780;2023-04-07T11:58:37;100372.00;;;13.90
9985;BMP180;16737;50.932;6.780;2023-04-07T12:01:06;100372.00;;;13.90
9985;BMP180;16737;50.932;6.780;2023-04-07T12:03:35;100376.00;;;13.60
9985;BMP180;16737;50.932;6.780;2023-04-07T12:06:03;100335.00;;;14.00
9985;BMP180;16737;50.932;6.780;2023-04-07T12:08:39;100373.00;;;14.00
9985;BMP180;16737;50.932;6.780;2023-04-07T12:11:06;100368.00;;;14.10
9985;BMP180;16737;50.932;6.780;2023-04-07T12:13:35;100383.00;;;14.10
9985;BMP180;16737;50.932;6.780;2023-04-07T12:16:02;100387.00;;;14.10
9985;BMP180;16737;50.932;6.780;2023-04-07T12:18:31;100253.00;;;14.10
9985;BMP180;16737;50.932;6.780;2023-04-07T12:20:58;100372.00;;;14.10
9985;BMP180;16737;50.932;6.780;2023-04-07T12:23:26;100394.00;;;14.10
9985;BMP180;16737;50.932;6.780;2023-04-07T12:25:53;100397.00;;;14.10
9985;BMP180;16737;50.932;6.780;2023-04-07T12:28:20;100402.00;;;14.10
9985;BMP180;16737;50.932;6.780;2023-04-07T12:30:47;100414.00;;;14.10
9985;BMP180;16737;50.932;6.780;2023-04-07T12:33:14;100398.00;;;14.10
9985;BMP180;16737;50.932;6.780;2023-04-07T12:35:44;100385.00;;;14.10
9985;BMP180;16737;50.932;6.780;2023-04-07T12:38:12;100385.00;;;14.00
9985;BMP180;16737;50.932;6.780;2023-04-07T12:40:39;100401.00;;;14.00
9985;BMP180;16737;50.932;6.780;2023-04-07T12:43:06;100392.00;;;14.00
9985;BMP180;16737;50.932;6.780;2023-04-07T12:45:33;100349.00;;;14.00
9985;BMP180;16737;50.932;6.780;2023-04-07T12:48:00;100382.00;;;14.00
9985;BMP180;16737;50.932;6.780;2023-04-07T12:50:28;100396.00;;;14.10
9985;BMP180;16737;50.932;6.780;2023-04-07T12:52:57;100410.00;;;14.10
9985;BMP180;16737;50.932;6.780;2023-04-07T12:55:28;100404.00;;;14.10
9985;BMP180;16737;50.932;6.780;2023-04-07T12:57:55;100407.00;;;14.20
9985;BMP180;16737;50.932;6.780;2023-04-07T13:00:22;100381.00;;;14.30
9985;BMP180;16737;50.932;6.780;2023-04-07T13:02:50;100425.00;;;14.30
9985;BMP180;16737;50.932;6.780;2023-04-07T13:05:17;100411.00;;;14.40
9985;BMP180;16737;50.932;6.780;2023-04-07T13:07:44;100405.00;;;14.40
9985;BMP180;16737;50.932;6.780;2023-04-07T13:10:12;100372.00;;;14.50
9985;BMP180;16737;50.932;6.780;2023-04-07T13:12:39;100410.00;;;14.50
9985;BMP180;16737;50.932;6.780;2023-04-07T13:15:07;100414.00;;;14.50
9985;BMP180;16737;50.932;6.780;2023-04-07T13:17:34;100402.00;;;14.60
9985;BMP180;16737;50.932;6.780;2023-04-07T13:20:03;100409.00;;;14.60
9985;BMP180;16737;50.932;6.780;2023-04-07T13:22:32;100396.00;;;14.70
9985;BMP180;16737;50.932;6.780;2023-04-07T13:24:59;100410.00;;;14.70
9985;BMP180;16737;50.932;6.780;2023-04-07T13:27:27;100407.00;;;14.70
9985;BMP180;16737;50.932;6.780;2023-04-07T13:29:55;100420.00;;;14.80
9985;BMP180;16737;50.932;6.780;2023-04-07T13:32:22;100411.00;;;14.80
9985;BMP180;16737;50.932;6.780;2023-04-07T13:34:49;100421.00;;;14.80
9985;BMP180;16737;50.932;6.780;2023-04-07T13:37:17;100411.00;;;14.90
9985;BMP180;16737;50.932;6.780;2023-04-07T13:39:45;100415.00;;;14.90
9985;BMP180;16737;50.932;6.780;2023-04-07T13:42:13;100359.00;;;14.90
9985;BMP180;16737;50.932;6.780;2023-04-07T13:44:43;100418.00;;;14.90
9985;BMP180;16737;50.932;6.780;2023-04-07T13:47:11;100386.00;;;14.90
9985;BMP180;16737;50.932;6.780;2023-04-07T13:49:39;100415.00;;;14.90
9985;BMP180;16737;50.932;6.780;2023-04-07T13:52:09;100388.00;;;14.80
9985;BMP180;16737;50.932;6.780;2023-04-07T13:54:38;100426.00;;;14.80
9985;BMP180;16737;50.932;6.780;2023-04-07T13:57:05;100421.00;;;14.80
9985;BMP180;16737;50.932;6.780;2023-04-07T13:59:31;100422.00;;;14.80
9985;BMP180;16737;50.932;6.780;2023-04-07T14:02:00;100427.00;;;14.80
9985;BMP180;16737;50.932;6.780;2023-04-07T14:04:27;100429.00;;;14.80
9985;BMP180;16737;50.932;6.780;2023-04-07T14:06:54;100415.00;;;14.80
9985;BMP180;16737;50.932;6.780;2023-04-07T14:09:21;100412.00;;;14.80
9985;BMP180;16737;50.932;6.780;2023-04-07T14:11:48;100421.00;;;14.80
9985;BMP180;16737;50.932;6.780;2023-04-07T14:14:16;100427.00;;;14.80
9985;BMP180;16737;50.932;6.780;2023-04-07T14:16:43;100416.00;;;14.90
9985;BMP180;16737;50.932;6.780;2023-04-07T14:19:12;100413.00;;;14.90
9985;BMP180;16737;50.932;6.780;2023-04-07T14:21:39;100413.00;;;14.90